KDDC/DDC METAR and TAF weather

Enter ICAO airport designator
Station Type Date Time Source
KDDC METAR 2020/03/31 10:05 UTC NOAA

KDDC 311005Z AUTO 18004KT 1/4SM FG BKN030 05/04 A3007 RMK AO2 T00500039


Station Type Date Time Source
KDDC Decoded METAR 2020/03/31 10:05 UTC NOAA

DODGE CITY REGIONAL AIRPORT, KS, United States (KDDC) 37-46N 99-58W 789M
Mar 31, 2020 - 06:05 AM EDT / 2020.03.31 1005 UTC
Wind: from the S (180 degrees) at 5 MPH (4 KT):0
Visibility: 1/4 mile(s):0
Sky conditions: mostly cloudy
Weather: fog
Temperature: 41.0 F (5.0 C)
Dew Point: 39.0 F (3.9 C)
Relative Humidity: 92%
Pressure (altimeter): 30.07 in. Hg (1018 hPa)
ob: KDDC 311005Z AUTO 18004KT 1/4SM FG BKN030 05/04 A3007 RMK AO2 T00500039
cycle: 10

Station Type Date Time Source
KDDC TAF 2020/03/31 06:24 UTC NOAA

TAF KDDC 310523Z 3106/0106 12007KT P6SM BKN009 OVC030
FM310900 VRB03KT 4SM BR BKN009
FM311400 25005KT P6SM BKN030
FM311600 19011G20KT P6SM FEW250

Example: see airport list